createdAt,value
2017-01-08T00:00:33.568Z,0.1
2017-01-08T00:01:14.128Z,0.04
2017-01-08T00:01:54.673Z,0
2017-01-08T00:02:35.235Z,-0.05
2017-01-08T00:03:15.812Z,0.07
2017-01-08T00:03:56.380Z,0.04
2017-01-08T00:04:36.936Z,0.08
2017-01-08T00:05:17.500Z,0.04
2017-01-08T00:05:58.053Z,0.08
2017-01-08T00:06:38.602Z,0
2017-01-08T00:07:19.151Z,0.11
2017-01-08T00:07:59.702Z,0.14
2017-01-08T00:08:40.276Z,0.24
2017-01-08T00:09:20.809Z,0.17
2017-01-08T00:10:01.351Z,0.14
2017-01-08T00:10:41.902Z,0.07
2017-01-08T00:11:22.466Z,0.1
2017-01-08T00:12:03.049Z,0.11
2017-01-08T00:12:43.593Z,0.13
2017-01-08T00:13:24.133Z,0.07
2017-01-08T00:14:04.695Z,0.08
2017-01-08T00:14:45.320Z,0.18
2017-01-08T00:15:25.801Z,0.24
2017-01-08T00:16:06.323Z,0.13
2017-01-08T00:16:46.865Z,0.11
2017-01-08T00:17:27.406Z,0.23
2017-01-08T00:18:07.960Z,0.08
2017-01-08T00:18:48.545Z,0.14
2017-01-08T00:19:29.060Z,0.14
2017-01-08T00:20:09.620Z,0.2
2017-01-08T00:20:50.165Z,0.29
2017-01-08T00:21:30.727Z,0.1
2017-01-08T00:22:11.304Z,0.08
2017-01-08T00:22:51.799Z,0.08
2017-01-08T00:23:32.363Z,0.17
2017-01-08T00:24:12.910Z,0.13
2017-01-08T00:24:53.474Z,0.26
2017-01-08T00:25:34.033Z,0.14
2017-01-08T00:26:14.566Z,0.13
2017-01-08T00:26:55.138Z,0.24
2017-01-08T00:27:35.706Z,0.18
2017-01-08T00:28:16.241Z,0.13
2017-01-08T00:28:56.786Z,0.04
2017-01-08T00:29:37.297Z,0.18
2017-01-08T00:30:17.830Z,0.2
2017-01-08T00:30:58.372Z,0.23
2017-01-08T00:31:38.920Z,0.14
2017-01-08T00:32:19.449Z,0.13
2017-01-08T00:32:59.993Z,0.23
2017-01-08T00:33:40.571Z,0.28
2017-01-08T00:34:21.108Z,0.24
2017-01-08T00:35:01.660Z,0.26
2017-01-08T00:35:42.210Z,0.24
2017-01-08T00:36:22.779Z,0.28
2017-01-08T00:37:03.309Z,0.26
2017-01-08T00:37:43.834Z,0.28
2017-01-08T00:38:24.350Z,0.29
2017-01-08T00:39:04.894Z,0.29
2017-01-08T00:39:45.457Z,0.18
2017-01-08T00:40:26.019Z,0.18
2017-01-08T00:41:06.574Z,0.26
2017-01-08T00:41:47.119Z,0.28
2017-01-08T00:42:27.670Z,0.31
2017-01-08T00:43:08.221Z,0.29
2017-01-08T00:43:48.770Z,0.26
2017-01-08T00:44:29.343Z,0.2
2017-01-08T00:45:09.912Z,0.33
2017-01-08T00:45:50.461Z,0.29
2017-01-08T00:46:31.048Z,0.35
2017-01-08T00:47:11.566Z,0.41
2017-01-08T00:47:52.126Z,0.38
2017-01-08T00:48:32.677Z,0.41
2017-01-08T00:49:13.229Z,0.39
2017-01-08T00:49:53.779Z,0.49
2017-01-08T00:50:34.338Z,0.39
2017-01-08T00:51:14.892Z,0.44
2017-01-08T00:51:55.424Z,0.53
2017-01-08T00:52:35.963Z,0.5
2017-01-08T00:53:16.501Z,0.47
2017-01-08T00:53:57.041Z,0.44
2017-01-08T00:54:37.580Z,0.57
2017-01-08T00:55:18.122Z,0.51
2017-01-08T00:55:58.665Z,0.47
2017-01-08T00:56:39.229Z,0.68
2017-01-08T00:57:19.765Z,0.66
2017-01-08T00:58:00.320Z,0.65
2017-01-08T00:58:40.885Z,0.69
2017-01-08T00:59:21.439Z,0.66
2017-01-08T01:00:01.994Z,0.68
2017-01-08T01:00:42.540Z,0.69
2017-01-08T01:01:23.097Z,0.58
2017-01-08T01:02:03.658Z,0.46
2017-01-08T01:02:44.154Z,0.49
2017-01-08T01:03:24.701Z,0.49
2017-01-08T01:04:05.204Z,0.51
2017-01-08T01:04:45.734Z,0.57
2017-01-08T01:05:26.320Z,0.72
2017-01-08T01:06:06.863Z,0.62
2017-01-08T01:06:47.425Z,0.61
2017-01-08T01:07:27.943Z,0.65
2017-01-08T01:08:08.495Z,0.53
2017-01-08T01:08:49.052Z,0.62
2017-01-08T01:09:29.623Z,0.61
2017-01-08T01:10:10.156Z,0.75
2017-01-08T01:10:50.716Z,0.65
2017-01-08T01:11:31.264Z,0.66
2017-01-08T01:12:11.802Z,0.65
2017-01-08T01:12:52.365Z,0.66
2017-01-08T01:13:32.916Z,0.73
2017-01-08T01:14:13.484Z,0.68
2017-01-08T01:14:54.027Z,0.6
2017-01-08T01:15:34.582Z,0.75
2017-01-08T01:16:15.123Z,0.69
2017-01-08T01:16:55.689Z,0.79
2017-01-08T01:17:36.257Z,0.75
2017-01-08T01:18:16.802Z,0.61
2017-01-08T01:18:57.354Z,0.7
2017-01-08T01:19:37.916Z,0.62
2017-01-08T01:20:18.475Z,0.68
2017-01-08T01:20:59.019Z,0.62
2017-01-08T01:21:39.567Z,0.58
2017-01-08T01:22:20.122Z,0.62
2017-01-08T01:23:00.667Z,0.69
2017-01-08T01:23:41.193Z,0.66
2017-01-08T01:24:21.774Z,0.69
2017-01-08T01:25:02.317Z,0.7
2017-01-08T01:25:42.868Z,0.83
2017-01-08T01:26:23.435Z,0.68
2017-01-08T01:27:03.961Z,0.76
2017-01-08T01:27:44.541Z,0.72
2017-01-08T01:28:25.027Z,0.6
2017-01-08T01:29:05.587Z,0.57
2017-01-08T01:29:46.175Z,0.62
2017-01-08T01:30:26.717Z,0.68
2017-01-08T01:31:07.279Z,0.68
2017-01-08T01:31:47.820Z,0.61
2017-01-08T01:32:28.389Z,0.62
2017-01-08T01:33:08.917Z,0.6
2017-01-08T01:33:49.485Z,0.62
2017-01-08T01:34:30.032Z,0.72
2017-01-08T01:35:10.560Z,0.58
2017-01-08T01:35:51.099Z,0.49
2017-01-08T01:36:31.637Z,0.51
2017-01-08T01:37:12.158Z,0.42
2017-01-08T01:37:52.689Z,0.51
2017-01-08T01:38:33.236Z,0.49
2017-01-08T01:39:13.745Z,0.6
2017-01-08T01:39:54.284Z,0.57
2017-01-08T01:40:34.791Z,0.72
2017-01-08T01:41:15.340Z,0.62
2017-01-08T01:41:55.888Z,0.72
2017-01-08T01:42:36.428Z,0.79
2017-01-08T01:43:16.967Z,0.68
2017-01-08T01:43:57.525Z,0.72
2017-01-08T01:44:38.077Z,0.66
2017-01-08T01:45:18.620Z,0.61
2017-01-08T01:45:59.182Z,0.66
2017-01-08T01:46:39.747Z,0.57
2017-01-08T01:47:20.288Z,0.62
2017-01-08T01:48:00.865Z,0.78
2017-01-08T01:48:41.414Z,0.57
2017-01-08T01:49:21.974Z,0.6
2017-01-08T01:50:02.543Z,0.66
2017-01-08T01:50:43.099Z,0.69
2017-01-08T01:51:23.660Z,0.5
2017-01-08T01:52:04.227Z,0.61
2017-01-08T01:52:44.796Z,0.5
2017-01-08T01:53:25.350Z,0.68
2017-01-08T01:54:05.897Z,0.69
2017-01-08T01:54:46.457Z,0.72
2017-01-08T01:55:27.010Z,0.65
2017-01-08T01:56:07.596Z,0.62
2017-01-08T01:56:48.154Z,0.69
2017-01-08T01:57:28.712Z,0.78
2017-01-08T01:58:09.267Z,0.66
2017-01-08T01:58:49.816Z,0.66
2017-01-08T01:59:30.374Z,0.68
2017-01-08T02:00:10.936Z,0.8
2017-01-08T02:00:51.475Z,0.75
2017-01-08T02:01:32.032Z,0.8
2017-01-08T02:02:12.589Z,0.7
2017-01-08T02:02:53.152Z,0.65
2017-01-08T02:03:33.720Z,0.76
2017-01-08T02:04:14.277Z,0.69
2017-01-08T02:04:54.850Z,0.66
2017-01-08T02:05:35.413Z,0.7
2017-01-08T02:06:15.977Z,0.62
2017-01-08T02:06:56.536Z,0.66
2017-01-08T02:07:37.072Z,0.8
2017-01-08T02:08:17.652Z,0.78
2017-01-08T02:08:58.224Z,0.69
2017-01-08T02:09:38.786Z,0.75
2017-01-08T02:10:19.359Z,0.75
2017-01-08T02:10:59.911Z,0.72
2017-01-08T02:11:40.462Z,0.62
2017-01-08T02:12:21.020Z,0.78
2017-01-08T02:13:01.569Z,0.66
2017-01-08T02:13:42.127Z,0.65
2017-01-08T02:14:22.691Z,0.68
2017-01-08T02:15:03.213Z,0.69
2017-01-08T02:15:43.775Z,0.68
2017-01-08T02:16:24.324Z,0.7
2017-01-08T02:17:04.875Z,0.57
2017-01-08T02:17:45.455Z,0.69
2017-01-08T02:18:26.012Z,0.65
2017-01-08T02:19:06.573Z,0.65
2017-01-08T02:19:47.137Z,0.6
2017-01-08T02:20:27.695Z,0.65
2017-01-08T02:21:08.262Z,0.6
2017-01-08T02:21:48.829Z,0.61
2017-01-08T02:22:29.377Z,0.7
2017-01-08T02:23:09.931Z,0.66
2017-01-08T02:23:50.510Z,0.72
2017-01-08T02:24:31.066Z,0.73
2017-01-08T02:25:11.628Z,0.65
2017-01-08T02:25:52.158Z,0.69
2017-01-08T02:26:32.708Z,0.69
2017-01-08T02:27:13.273Z,0.62
2017-01-08T02:27:53.827Z,0.6
2017-01-08T02:28:34.390Z,0.65
2017-01-08T02:29:14.949Z,0.72
2017-01-08T02:29:55.509Z,0.79
2017-01-08T02:30:36.080Z,0.75
2017-01-08T02:31:16.646Z,0.66
2017-01-08T02:31:57.195Z,0.62
2017-01-08T02:32:37.757Z,0.78
2017-01-08T02:33:18.319Z,0.62
2017-01-08T02:33:58.871Z,0.66
2017-01-08T02:34:39.431Z,0.66
2017-01-08T02:35:19.990Z,0.8
2017-01-08T02:36:00.536Z,0.6
2017-01-08T02:36:41.089Z,0.79
2017-01-08T02:37:21.648Z,0.61
2017-01-08T02:38:02.217Z,0.73
2017-01-08T02:38:42.784Z,0.73
2017-01-08T02:39:23.352Z,0.75
2017-01-08T02:40:03.915Z,0.69
2017-01-08T02:40:44.477Z,0.79
2017-01-08T02:41:25.018Z,0.79
2017-01-08T02:42:05.576Z,0.72
2017-01-08T02:42:46.130Z,0.7
2017-01-08T02:43:26.685Z,0.75
2017-01-08T02:44:07.280Z,0.68
2017-01-08T02:44:47.817Z,0.76
2017-01-08T02:45:28.373Z,0.72
2017-01-08T02:46:08.923Z,0.65
2017-01-08T02:46:49.497Z,0.6
2017-01-08T02:47:30.044Z,0.75
2017-01-08T02:48:10.601Z,0.87
2017-01-08T02:48:51.158Z,0.7
2017-01-08T02:49:31.724Z,0.87
2017-01-08T02:50:12.284Z,0.84
2017-01-08T02:50:52.835Z,0.86
2017-01-08T02:51:33.390Z,0.86
2017-01-08T02:52:13.944Z,0.91
2017-01-08T02:52:54.593Z,0.86
2017-01-08T02:53:35.150Z,0.86
2017-01-08T02:54:15.708Z,0.87
2017-01-08T02:54:56.253Z,0.93
2017-01-08T02:55:36.808Z,0.86
2017-01-08T02:56:17.364Z,0.88
2017-01-08T02:56:57.926Z,0.91
2017-01-08T02:57:38.485Z,0.87
2017-01-08T02:58:19.047Z,0.88
2017-01-08T02:58:59.607Z,1.04
2017-01-08T02:59:40.173Z,0.96
2017-01-08T03:00:20.726Z,1
2017-01-08T03:01:01.291Z,0.9
2017-01-08T03:01:41.874Z,0.8
2017-01-08T03:02:22.437Z,0.84
2017-01-08T03:03:02.990Z,0.75
2017-01-08T03:03:43.542Z,0.69
2017-01-08T03:04:24.091Z,0.84
2017-01-08T03:05:04.634Z,0.86
2017-01-08T03:05:45.180Z,0.83
2017-01-08T03:06:25.755Z,0.87
2017-01-08T03:07:06.316Z,0.84
2017-01-08T03:07:46.870Z,0.94
2017-01-08T03:08:27.413Z,0.94
2017-01-08T03:09:07.968Z,0.86
2017-01-08T03:09:48.525Z,0.87
2017-01-08T03:10:29.076Z,0.84
2017-01-08T03:11:09.635Z,0.84
2017-01-08T03:11:50.199Z,0.86
2017-01-08T03:12:30.755Z,0.87
2017-01-08T03:13:11.324Z,0.75
2017-01-08T03:13:51.903Z,0.73
2017-01-08T03:14:32.461Z,0.83
2017-01-08T03:15:13.013Z,0.66
2017-01-08T03:15:53.581Z,0.79
2017-01-08T03:16:34.136Z,0.73
2017-01-08T03:17:14.693Z,0.76
2017-01-08T03:17:55.238Z,0.83
2017-01-08T03:18:35.797Z,0.84
2017-01-08T03:19:16.346Z,0.88
2017-01-08T03:19:56.906Z,0.93
2017-01-08T03:20:37.459Z,0.9
2017-01-08T03:21:18.014Z,0.87
2017-01-08T03:21:58.575Z,0.79
2017-01-08T03:22:39.132Z,0.75
2017-01-08T03:23:19.688Z,0.84
2017-01-08T03:24:00.235Z,0.79
2017-01-08T03:24:40.793Z,0.66
2017-01-08T03:25:21.356Z,0.78
2017-01-08T03:26:01.922Z,0.75
2017-01-08T03:26:42.493Z,0.76
2017-01-08T03:27:23.064Z,0.86
2017-01-08T03:28:03.609Z,0.91
2017-01-08T03:28:44.156Z,0.83
2017-01-08T03:29:24.702Z,0.91
2017-01-08T03:30:05.250Z,0.94
2017-01-08T03:30:45.799Z,0.93
2017-01-08T03:31:26.354Z,1
2017-01-08T03:32:06.916Z,0.91
2017-01-08T03:32:47.476Z,1.06
2017-01-08T03:33:28.069Z,1.04
2017-01-08T03:34:08.607Z,1.06
2017-01-08T03:34:49.146Z,1.08
2017-01-08T03:35:29.699Z,1.06
2017-01-08T03:36:10.255Z,1.12
2017-01-08T03:36:50.811Z,1.08
2017-01-08T03:37:31.359Z,1.05
2017-01-08T03:38:11.910Z,1.08
2017-01-08T03:38:52.462Z,1.06
2017-01-08T03:39:33.022Z,1.11
2017-01-08T03:40:13.571Z,1.09
2017-01-08T03:40:54.137Z,1.08
2017-01-08T03:41:34.682Z,1.12
2017-01-08T03:42:15.241Z,1.09
2017-01-08T03:42:55.798Z,1.16
2017-01-08T03:43:36.331Z,1.15
2017-01-08T03:44:16.872Z,1.08
2017-01-08T03:44:57.427Z,1
2017-01-08T03:45:37.984Z,1.04
2017-01-08T03:46:18.548Z,1
2017-01-08T03:46:59.086Z,1.06
2017-01-08T03:47:39.642Z,1.2
2017-01-08T03:48:20.188Z,1.04
2017-01-08T03:49:00.756Z,1.05
2017-01-08T03:49:41.308Z,1.02
2017-01-08T03:50:21.864Z,1
2017-01-08T03:51:02.409Z,1.12
2017-01-08T03:51:42.976Z,1.11
2017-01-08T03:52:23.562Z,1.12
2017-01-08T03:53:04.102Z,1.16
2017-01-08T03:53:44.669Z,1.15
2017-01-08T03:54:25.217Z,1.09
2017-01-08T03:55:05.777Z,1.06
2017-01-08T03:55:46.324Z,1.06
2017-01-08T03:56:26.883Z,1.02
2017-01-08T03:57:07.471Z,1.16
2017-01-08T03:57:48.025Z,1.16
2017-01-08T03:58:28.585Z,1.16
2017-01-08T03:59:09.167Z,1.15
2017-01-08T03:59:49.732Z,1.16
2017-01-08T04:00:30.295Z,1.15
2017-01-08T04:01:10.855Z,1.29
2017-01-08T04:01:51.403Z,1.15
2017-01-08T04:02:31.962Z,1.11
2017-01-08T04:03:12.519Z,1.26
2017-01-08T04:03:53.094Z,1.23
2017-01-08T04:04:33.641Z,1.26
2017-01-08T04:05:14.180Z,1.27
2017-01-08T04:05:54.738Z,1.18
2017-01-08T04:06:35.290Z,1.36
2017-01-08T04:07:15.845Z,1.29
2017-01-08T04:07:56.413Z,1.29
2017-01-08T04:08:36.963Z,1.26
2017-01-08T04:09:17.516Z,1.26
2017-01-08T04:09:58.051Z,1.26
2017-01-08T04:10:38.587Z,1.33
2017-01-08T04:11:19.157Z,1.27
2017-01-08T04:11:59.698Z,1.18
2017-01-08T04:12:40.245Z,1.16
2017-01-08T04:13:20.802Z,1.14
2017-01-08T04:14:01.336Z,1.14
2017-01-08T04:14:41.909Z,1.14
2017-01-08T04:15:22.466Z,1.06
2017-01-08T04:16:03.029Z,1.08
2017-01-08T04:16:43.579Z,1.12
2017-01-08T04:17:24.176Z,1.14
2017-01-08T04:18:04.731Z,1.15
2017-01-08T04:18:45.299Z,1.23
2017-01-08T04:19:25.861Z,1.18
2017-01-08T04:20:06.426Z,1.15
2017-01-08T04:20:46.983Z,1.16
2017-01-08T04:21:27.551Z,1.08
2017-01-08T04:22:08.096Z,1.04
2017-01-08T04:22:48.655Z,1
2017-01-08T04:23:29.225Z,0.98
2017-01-08T04:24:09.764Z,1.12
2017-01-08T04:24:50.313Z,1.05
2017-01-08T04:25:30.857Z,1.14
2017-01-08T04:26:11.407Z,0.98
2017-01-08T04:26:51.963Z,1.11
2017-01-08T04:27:32.520Z,1.12
2017-01-08T04:28:13.088Z,1.16
2017-01-08T04:28:53.629Z,1.12
2017-01-08T04:29:34.197Z,1.16
2017-01-08T04:30:14.761Z,1.2
2017-01-08T04:30:55.298Z,1.15
2017-01-08T04:31:35.860Z,1.23
2017-01-08T04:32:16.432Z,1.12
2017-01-08T04:32:56.983Z,1.16
2017-01-08T04:33:37.539Z,1.14
2017-01-08T04:34:18.085Z,1.06
2017-01-08T04:34:58.643Z,1.14
2017-01-08T04:35:39.189Z,1.26
2017-01-08T04:36:19.747Z,1.27
2017-01-08T04:37:00.288Z,1.12
2017-01-08T04:37:40.877Z,1.06
2017-01-08T04:38:21.428Z,1.09
2017-01-08T04:39:01.980Z,1.14
2017-01-08T04:39:42.553Z,1.15
2017-01-08T04:40:23.101Z,1.14
2017-01-08T04:41:03.663Z,1.11
2017-01-08T04:41:44.205Z,1.09
2017-01-08T04:42:24.761Z,1.15
2017-01-08T04:43:05.327Z,1.16
2017-01-08T04:43:45.909Z,1.08
2017-01-08T04:44:26.458Z,1.09
2017-01-08T04:45:07.020Z,1.15
2017-01-08T04:45:47.582Z,1.2
2017-01-08T04:46:28.137Z,1.26
2017-01-08T04:47:08.706Z,1.3
2017-01-08T04:47:49.241Z,1.22
2017-01-08T04:48:29.798Z,1.29
2017-01-08T04:49:10.416Z,1.14
2017-01-08T04:49:50.971Z,1.14
2017-01-08T04:50:31.564Z,1.02
2017-01-08T04:51:12.116Z,1.02
2017-01-08T04:51:52.709Z,1.05
2017-01-08T04:52:33.269Z,1.06
2017-01-08T04:53:13.817Z,1
2017-01-08T04:53:54.379Z,1.11
2017-01-08T04:54:34.905Z,1.12
2017-01-08T04:55:15.461Z,1.12
2017-01-08T04:55:56.007Z,1.15
2017-01-08T04:56:36.568Z,1.18
2017-01-08T04:57:17.128Z,1.12
2017-01-08T04:57:57.685Z,1.14
2017-01-08T04:58:38.250Z,1.23
2017-01-08T04:59:18.799Z,1.23
2017-01-08T04:59:59.367Z,1.26
2017-01-08T05:00:39.935Z,1.22
2017-01-08T05:01:20.501Z,1.24
2017-01-08T05:02:01.044Z,1.15
2017-01-08T05:02:41.601Z,1.14
2017-01-08T05:03:22.147Z,1.14
2017-01-08T05:04:02.718Z,0.97
2017-01-08T05:04:43.269Z,1.15
2017-01-08T05:05:23.814Z,1
2017-01-08T05:06:04.372Z,1
2017-01-08T05:06:44.916Z,1.16
2017-01-08T05:07:25.475Z,1.11
2017-01-08T05:08:06.038Z,1.2
2017-01-08T05:08:46.596Z,1.15
2017-01-08T05:09:27.157Z,1.24
2017-01-08T05:10:07.744Z,1.12
2017-01-08T05:10:48.280Z,1.26
2017-01-08T05:11:28.840Z,1.24
2017-01-08T05:12:09.379Z,1.33
2017-01-08T05:12:49.937Z,1.29
2017-01-08T05:13:30.489Z,1.27
2017-01-08T05:14:11.053Z,1.14
2017-01-08T05:14:51.605Z,1.14
2017-01-08T05:15:32.150Z,1.24
2017-01-08T05:16:12.725Z,1.23
2017-01-08T05:16:53.272Z,1.26
2017-01-08T05:17:33.829Z,1.26
2017-01-08T05:18:14.404Z,1.14
2017-01-08T05:18:54.967Z,1.06
2017-01-08T05:19:35.526Z,1.18
2017-01-08T05:20:16.101Z,1.22
2017-01-08T05:20:56.650Z,1.22
2017-01-08T05:21:37.208Z,1.18
2017-01-08T05:22:17.761Z,1.2
2017-01-08T05:22:58.327Z,1.23
2017-01-08T05:23:38.900Z,1.29
2017-01-08T05:24:19.468Z,1.27
2017-01-08T05:25:00.009Z,1.23
2017-01-08T05:25:40.570Z,1.27
2017-01-08T05:26:21.127Z,1.36
2017-01-08T05:27:01.692Z,1.4
2017-01-08T05:27:42.242Z,1.41
2017-01-08T05:28:22.804Z,1.34
2017-01-08T05:29:03.362Z,1.26
2017-01-08T05:29:43.928Z,1.33
2017-01-08T05:30:24.485Z,1.32
2017-01-08T05:31:05.022Z,1.34
2017-01-08T05:31:45.579Z,1.37
2017-01-08T05:32:26.122Z,1.41
2017-01-08T05:33:06.689Z,1.4
2017-01-08T05:33:47.238Z,1.4
2017-01-08T05:34:27.797Z,1.36
2017-01-08T05:35:08.373Z,1.2
2017-01-08T05:35:48.931Z,1.16
2017-01-08T05:36:29.491Z,1.14
2017-01-08T05:37:10.028Z,1.26
2017-01-08T05:37:50.602Z,1.32
2017-01-08T05:38:31.154Z,1.26
2017-01-08T05:39:11.705Z,1.22
2017-01-08T05:39:52.257Z,1.24
2017-01-08T05:40:32.824Z,1.11
2017-01-08T05:41:13.367Z,1.2
2017-01-08T05:41:53.927Z,1.09
2017-01-08T05:42:34.494Z,1.18
2017-01-08T05:43:15.044Z,1.11
2017-01-08T05:43:55.609Z,1.14
2017-01-08T05:44:36.148Z,1.29
2017-01-08T05:45:16.701Z,1.23
2017-01-08T05:45:57.252Z,1.29
2017-01-08T05:46:37.796Z,1.2
2017-01-08T05:47:18.344Z,1.23
2017-01-08T05:47:58.913Z,1.24
2017-01-08T05:48:39.463Z,1.26
2017-01-08T05:49:20.034Z,1.37
2017-01-08T05:50:00.595Z,1.33
2017-01-08T05:50:41.143Z,1.33
2017-01-08T05:51:21.694Z,1.37
2017-01-08T05:52:02.257Z,1.4
2017-01-08T05:52:42.818Z,1.44
2017-01-08T05:53:23.359Z,1.36
2017-01-08T05:54:03.921Z,1.36
2017-01-08T05:54:44.484Z,1.34
2017-01-08T05:55:25.036Z,1.41
2017-01-08T05:56:05.626Z,1.41
2017-01-08T05:56:46.178Z,1.4
2017-01-08T05:57:26.729Z,1.4
2017-01-08T05:58:07.282Z,1.44
2017-01-08T05:58:47.835Z,1.54
2017-01-08T05:59:28.383Z,1.48
2017-01-08T06:00:08.940Z,1.47
2017-01-08T06:00:49.494Z,1.6
2017-01-08T06:01:30.052Z,1.6
2017-01-08T06:02:10.585Z,1.55
2017-01-08T06:02:51.150Z,1.51
2017-01-08T06:03:31.694Z,1.6
2017-01-08T06:04:12.245Z,1.69
2017-01-08T06:04:52.808Z,1.52
2017-01-08T06:05:33.364Z,1.47
2017-01-08T06:06:13.924Z,1.44
2017-01-08T06:06:54.464Z,1.41
2017-01-08T06:07:35.016Z,1.26
2017-01-08T06:08:15.568Z,1.2
2017-01-08T06:08:56.126Z,1.26
2017-01-08T06:09:36.680Z,1.29
2017-01-08T06:10:17.231Z,1.45
2017-01-08T06:10:57.797Z,1.4
2017-01-08T06:11:38.352Z,1.36
2017-01-08T06:12:18.909Z,1.27
2017-01-08T06:12:59.471Z,1.32
2017-01-08T06:13:40.020Z,1.32
2017-01-08T06:14:20.585Z,1.45
2017-01-08T06:15:01.153Z,1.36
2017-01-08T06:15:41.686Z,1.37
2017-01-08T06:16:22.231Z,1.45
2017-01-08T06:17:02.761Z,1.34
2017-01-08T06:17:43.300Z,1.33
2017-01-08T06:18:23.851Z,1.41
2017-01-08T06:19:04.441Z,1.34
2017-01-08T06:19:44.968Z,1.4
2017-01-08T06:20:25.510Z,1.36
2017-01-08T06:21:06.075Z,1.27
2017-01-08T06:21:46.622Z,1.37
2017-01-08T06:22:27.181Z,1.33
2017-01-08T06:23:07.744Z,1.4
2017-01-08T06:23:48.299Z,1.34
2017-01-08T06:24:28.871Z,1.4
2017-01-08T06:25:09.419Z,1.37
2017-01-08T06:25:49.975Z,1.41
2017-01-08T06:26:30.562Z,1.5
2017-01-08T06:27:11.122Z,1.41
2017-01-08T06:27:51.676Z,1.33
2017-01-08T06:28:32.234Z,1.3
2017-01-08T06:29:12.794Z,1.3
2017-01-08T06:29:53.345Z,1.4
2017-01-08T06:30:33.903Z,1.42
2017-01-08T06:31:14.461Z,1.45
2017-01-08T06:31:55.022Z,1.47
2017-01-08T06:32:35.592Z,1.47
2017-01-08T06:33:16.152Z,1.4
2017-01-08T06:33:56.705Z,1.32
2017-01-08T06:34:37.248Z,1.33
2017-01-08T06:35:17.822Z,1.3
2017-01-08T06:35:58.379Z,1.3
2017-01-08T06:36:38.923Z,1.42
2017-01-08T06:37:19.479Z,1.44
2017-01-08T06:38:00.029Z,1.4
2017-01-08T06:38:40.597Z,1.52
2017-01-08T06:39:21.148Z,1.5
2017-01-08T06:40:01.712Z,1.54
2017-01-08T06:40:42.263Z,1.6
2017-01-08T06:41:22.823Z,1.45
2017-01-08T06:42:03.383Z,1.45
2017-01-08T06:42:43.934Z,1.41
2017-01-08T06:43:24.489Z,1.54
2017-01-08T06:44:05.037Z,1.6
2017-01-08T06:44:45.599Z,1.45
2017-01-08T06:45:26.160Z,1.55
2017-01-08T06:46:06.720Z,1.55
2017-01-08T06:46:47.282Z,1.5
2017-01-08T06:47:27.835Z,1.62
2017-01-08T06:48:08.383Z,1.52
2017-01-08T06:48:48.947Z,1.52
2017-01-08T06:49:29.490Z,1.54
2017-01-08T06:50:10.058Z,1.54
2017-01-08T06:50:50.611Z,1.65
2017-01-08T06:51:31.167Z,1.58
2017-01-08T06:52:11.714Z,1.62
2017-01-08T06:52:52.275Z,1.58
2017-01-08T06:53:32.822Z,1.51
2017-01-08T06:54:13.370Z,1.42
2017-01-08T06:54:53.913Z,1.55
2017-01-08T06:55:34.470Z,1.6
2017-01-08T06:56:15.037Z,1.55
2017-01-08T06:56:55.590Z,1.54
2017-01-08T06:57:36.154Z,1.58
2017-01-08T06:58:16.718Z,1.66
2017-01-08T06:58:57.268Z,1.55
2017-01-08T06:59:37.827Z,1.47
2017-01-08T07:00:18.368Z,1.55
2017-01-08T07:00:58.944Z,1.55
2017-01-08T07:01:39.494Z,1.41
2017-01-08T07:02:20.056Z,1.45
2017-01-08T07:03:00.652Z,1.42
2017-01-08T07:03:41.207Z,1.37
2017-01-08T07:04:21.763Z,1.32
2017-01-08T07:05:02.331Z,1.42
2017-01-08T07:05:42.886Z,1.42
2017-01-08T07:06:23.449Z,1.42
2017-01-08T07:07:04.002Z,1.42
2017-01-08T07:07:44.568Z,1.36
2017-01-08T07:08:25.113Z,1.45
2017-01-08T07:09:05.689Z,1.45
2017-01-08T07:09:46.229Z,1.42
2017-01-08T07:10:26.787Z,1.42
2017-01-08T07:11:07.322Z,1.44
2017-01-08T07:11:47.892Z,1.58
2017-01-08T07:12:28.451Z,1.51
2017-01-08T07:13:09.011Z,1.59
2017-01-08T07:13:49.564Z,1.55
2017-01-08T07:14:30.131Z,1.58
2017-01-08T07:15:10.681Z,1.42
2017-01-08T07:15:51.249Z,1.32
2017-01-08T07:16:31.806Z,1.16
2017-01-08T07:17:12.361Z,1.34
2017-01-08T07:17:52.909Z,1.33
2017-01-08T07:18:33.470Z,1.26
2017-01-08T07:19:14.028Z,1.4
2017-01-08T07:19:54.604Z,1.4
2017-01-08T07:20:35.181Z,1.54
2017-01-08T07:21:15.726Z,1.51
2017-01-08T07:21:56.279Z,1.41
2017-01-08T07:22:36.846Z,1.42
2017-01-08T07:23:17.404Z,1.52
2017-01-08T07:23:57.967Z,1.54
2017-01-08T07:24:38.530Z,1.5
2017-01-08T07:25:19.088Z,1.59
2017-01-08T07:25:59.652Z,1.6
2017-01-08T07:26:40.210Z,1.52
2017-01-08T07:27:20.773Z,1.5
2017-01-08T07:28:01.325Z,1.4
2017-01-08T07:28:41.884Z,1.48
2017-01-08T07:29:22.435Z,1.42
2017-01-08T07:30:03.013Z,1.37
2017-01-08T07:30:43.574Z,1.29
2017-01-08T07:31:24.125Z,1.34
2017-01-08T07:32:04.685Z,1.47
2017-01-08T07:32:45.248Z,1.4
2017-01-08T07:33:25.808Z,1.4
2017-01-08T07:34:06.368Z,1.41
2017-01-08T07:34:46.930Z,1.42
2017-01-08T07:35:27.479Z,1.37
2017-01-08T07:36:08.056Z,1.48
2017-01-08T07:36:48.618Z,1.47
2017-01-08T07:37:29.193Z,1.55
2017-01-08T07:38:09.761Z,1.52
2017-01-08T07:38:50.310Z,1.55
2017-01-08T07:39:30.881Z,1.59
2017-01-08T07:40:11.445Z,1.59
2017-01-08T07:40:52.004Z,1.6
2017-01-08T07:41:32.567Z,1.66
2017-01-08T07:42:13.135Z,1.59
2017-01-08T07:42:53.709Z,1.65
2017-01-08T07:43:34.265Z,1.65
2017-01-08T07:44:14.849Z,1.68
2017-01-08T07:44:55.394Z,1.58
2017-01-08T07:45:35.950Z,1.63
2017-01-08T07:46:16.505Z,1.62
2017-01-08T07:46:57.055Z,1.63
2017-01-08T07:47:37.598Z,1.68
2017-01-08T07:48:18.156Z,1.7
2017-01-08T07:48:58.707Z,1.7
2017-01-08T07:49:39.268Z,1.65
2017-01-08T07:50:19.811Z,1.72
2017-01-08T07:51:00.353Z,1.62
2017-01-08T07:51:40.897Z,1.69
2017-01-08T07:52:21.441Z,1.62
2017-01-08T07:53:01.995Z,1.69
2017-01-08T07:53:42.545Z,1.76
2017-01-08T07:54:23.105Z,1.8
2017-01-08T07:55:03.655Z,1.8
2017-01-08T07:55:44.211Z,1.83
2017-01-08T07:56:24.751Z,1.69
2017-01-08T07:57:05.329Z,1.73
2017-01-08T07:57:45.895Z,1.8
2017-01-08T07:58:26.430Z,1.72
2017-01-08T07:59:07.018Z,1.69
2017-01-08T07:59:47.585Z,1.79
2017-01-08T08:00:28.138Z,1.83
2017-01-08T08:01:08.699Z,1.76
2017-01-08T08:01:49.256Z,1.81
2017-01-08T08:02:29.826Z,1.79
2017-01-08T08:03:10.389Z,1.79
2017-01-08T08:03:50.926Z,1.8
2017-01-08T08:04:31.505Z,1.79
2017-01-08T08:05:12.068Z,1.77
2017-01-08T08:05:52.619Z,1.77
2017-01-08T08:06:33.410Z,1.69
2017-01-08T08:07:13.946Z,1.76
2017-01-08T08:07:54.480Z,1.8
2017-01-08T08:08:35.060Z,1.8
2017-01-08T08:09:15.614Z,1.83
2017-01-08T08:09:56.180Z,1.8
2017-01-08T08:10:36.746Z,1.86
2017-01-08T08:11:17.299Z,1.86
2017-01-08T08:11:57.839Z,1.72
2017-01-08T08:12:38.400Z,1.87
2017-01-08T08:13:18.963Z,1.99
2017-01-08T08:13:59.522Z,1.88
2017-01-08T08:14:40.120Z,1.87
2017-01-08T08:15:20.677Z,1.88
2017-01-08T08:16:01.230Z,1.87
2017-01-08T08:16:41.815Z,1.9
2017-01-08T08:17:22.343Z,1.9
2017-01-08T08:18:02.886Z,1.95
2017-01-08T08:18:43.444Z,2
2017-01-08T08:19:23.973Z,1.95
2017-01-08T08:20:04.499Z,2.06
2017-01-08T08:20:45.045Z,1.93
2017-01-08T08:21:25.585Z,2
2017-01-08T08:22:06.093Z,2.03
2017-01-08T08:22:46.629Z,1.95
2017-01-08T08:23:27.183Z,2.02
2017-01-08T08:24:07.737Z,1.99
2017-01-08T08:24:48.282Z,1.98
2017-01-08T08:25:28.808Z,2.12
2017-01-08T08:26:09.348Z,2.03
2017-01-08T08:26:49.896Z,1.87
2017-01-08T08:27:30.425Z,2.02
2017-01-08T08:28:11.084Z,2.03
2017-01-08T08:28:51.619Z,1.95
2017-01-08T08:29:32.168Z,1.9
2017-01-08T08:30:12.707Z,2
2017-01-08T08:30:53.233Z,2
2017-01-08T08:31:33.747Z,2.09
2017-01-08T08:32:14.287Z,2.12
2017-01-08T08:32:54.830Z,2.06
2017-01-08T08:33:35.358Z,2.12
2017-01-08T08:34:15.882Z,2.05
2017-01-08T08:34:56.406Z,1.91
2017-01-08T08:35:36.929Z,2.06
2017-01-08T08:36:17.471Z,2.1
2017-01-08T08:36:58.004Z,2.09
2017-01-08T08:37:38.523Z,2
2017-01-08T08:38:19.068Z,1.99
2017-01-08T08:38:59.600Z,2.03
2017-01-08T08:39:40.138Z,1.9
2017-01-08T08:40:20.679Z,1.99
2017-01-08T08:41:01.269Z,2
2017-01-08T08:41:41.800Z,1.93
2017-01-08T08:42:22.359Z,1.87
2017-01-08T08:43:02.924Z,1.95
2017-01-08T08:43:43.568Z,1.99
2017-01-08T08:44:24.080Z,2.07
2017-01-08T08:45:04.622Z,2.03
2017-01-08T08:45:45.164Z,2.09
2017-01-08T08:46:25.736Z,2.12
2017-01-08T08:47:06.274Z,2.09
2017-01-08T08:47:46.810Z,2.16
2017-01-08T08:48:27.348Z,2.1
2017-01-08T08:49:07.901Z,2.1
2017-01-08T08:49:48.436Z,2.2
2017-01-08T08:50:29.020Z,2.07
2017-01-08T08:51:09.539Z,2.12
2017-01-08T08:51:50.067Z,2.09
2017-01-08T08:52:30.615Z,2.1
2017-01-08T08:53:11.134Z,2.06
2017-01-08T08:53:51.707Z,2.05
2017-01-08T08:54:32.218Z,2.05
2017-01-08T08:55:12.755Z,1.99
2017-01-08T08:55:53.257Z,1.95
2017-01-08T08:56:33.780Z,1.9
2017-01-08T08:57:14.314Z,2.06
2017-01-08T08:57:54.869Z,2.09
2017-01-08T08:58:35.384Z,2.09
2017-01-08T08:59:15.961Z,2.16
2017-01-08T08:59:56.493Z,2.12
2017-01-08T09:00:37.024Z,2.03
2017-01-08T09:01:17.541Z,2.07
2017-01-08T09:01:58.097Z,2.07
2017-01-08T09:02:38.633Z,2.12
2017-01-08T09:03:19.138Z,2.07